createdAt,value
2023-04-16T00:01:47.417Z,97340.38
2023-04-16T00:04:14.347Z,97342.78
2023-04-16T00:06:41.192Z,97349.22
2023-04-16T00:09:09.534Z,97343.03
2023-04-16T00:11:36.535Z,97348.19
2023-04-16T00:14:03.335Z,97343.88
2023-04-16T00:16:30.348Z,97347.38
2023-04-16T00:18:57.165Z,97351.41
2023-04-16T00:21:24.000Z,97354.09
2023-04-16T00:23:50.864Z,97350.91
2023-04-16T00:26:19.016Z,97348.53
2023-04-16T00:28:45.828Z,97350.19
2023-04-16T00:31:12.885Z,97356.09
2023-04-16T00:33:39.737Z,97348.28
2023-04-16T00:36:06.735Z,97345.06
2023-04-16T00:38:33.586Z,97341.00
2023-04-16T00:41:00.374Z,97343.94
2023-04-16T00:43:28.542Z,97352.78
2023-04-16T00:45:56.646Z,97350.09
2023-04-16T00:48:23.658Z,97342.81
2023-04-16T00:50:50.489Z,97347.13
2023-04-16T00:53:17.392Z,97344.75
2023-04-16T00:55:44.263Z,97347.97
2023-04-16T00:58:11.189Z,97346.63
2023-04-16T01:03:35.098Z,97347.25
2023-04-16T01:06:02.813Z,97348.28
2023-04-16T01:08:29.674Z,97348.81
2023-04-16T01:10:56.492Z,97349.59
2023-04-16T01:13:23.303Z,97352.06
2023-04-16T01:15:51.709Z,97353.41
2023-04-16T01:18:19.533Z,97353.94
2023-04-16T01:20:47.819Z,97349.16
2023-04-16T01:23:14.657Z,97350.47
2023-04-16T01:25:41.488Z,97353.69
2023-04-16T01:28:08.278Z,97355.31
2023-04-16T01:30:35.120Z,97348.28
2023-04-16T01:33:02.097Z,97359.56
2023-04-16T01:35:29.007Z,97352.31
2023-04-16T01:37:57.184Z,97355.81
2023-04-16T01:40:24.049Z,97350.44
2023-04-16T01:42:50.847Z,97356.88
2023-04-16T01:45:17.765Z,97355.25
2023-04-16T01:47:44.691Z,97357.16
2023-04-16T01:50:11.575Z,97360.66
2023-04-16T01:52:38.406Z,97360.44
2023-04-16T01:55:07.037Z,97363.13
2023-04-16T01:57:33.878Z,97375.75
2023-04-16T02:00:00.772Z,97373.13
2023-04-16T02:02:27.887Z,97365.84
2023-04-16T02:04:55.535Z,97373.66
2023-04-16T02:07:22.364Z,97375.31
2023-04-16T02:09:49.269Z,97376.63
2023-04-16T02:12:17.658Z,97353.56
2023-04-16T02:14:44.495Z,97371.75
2023-04-16T02:17:11.321Z,97374.72
2023-04-16T02:19:38.118Z,97375.75
2023-04-16T02:22:04.904Z,97380.84
2023-04-16T02:24:31.735Z,97384.34
2023-04-16T02:26:58.637Z,97377.09
2023-04-16T02:29:26.960Z,97385.16
2023-04-16T02:31:53.860Z,97388.94
2023-04-16T02:34:20.723Z,97386.50
2023-04-16T02:36:47.532Z,97383.81
2023-04-16T02:39:14.334Z,97386.25
2023-04-16T02:41:41.176Z,97389.78
2023-04-16T02:44:08.010Z,97393.53
2023-04-16T02:46:36.197Z,97400.81
2023-04-16T02:49:03.027Z,97397.63
2023-04-16T02:51:29.815Z,97406.53
2023-04-16T02:53:56.641Z,97408.66
2023-04-16T02:56:23.558Z,97402.22
2023-04-16T02:58:50.361Z,97404.91
2023-04-16T03:01:17.219Z,97404.66
2023-04-16T03:03:45.546Z,97401.59
2023-04-16T03:06:12.378Z,97398.53
2023-04-16T03:08:39.254Z,97399.63
2023-04-16T03:11:06.088Z,97400.47
2023-04-16T03:13:33.125Z,97402.50
2023-04-16T03:16:00.200Z,97408.00
2023-04-16T03:18:27.067Z,97407.75
2023-04-16T03:20:55.229Z,97399.94
2023-04-16T03:23:22.043Z,97408.63
2023-04-16T03:25:48.834Z,97407.50
2023-04-16T03:28:15.627Z,97407.50
2023-04-16T03:30:42.494Z,97406.81
2023-04-16T03:33:09.282Z,97414.09
2023-04-16T03:35:36.097Z,97406.66
2023-04-16T03:38:04.259Z,97413.47
2023-04-16T03:40:31.046Z,97414.31
2023-04-16T03:42:57.830Z,97413.50
2023-04-16T03:45:24.773Z,97415.91
2023-04-16T03:47:51.617Z,97420.50
2023-04-16T03:50:18.631Z,97419.69
2023-04-16T03:52:45.453Z,97423.44
2023-04-16T03:55:13.745Z,97426.13
2023-04-16T03:57:40.651Z,97428.03
2023-04-16T04:00:07.948Z,97430.16
2023-04-16T04:02:34.866Z,97436.66
2023-04-16T04:05:01.931Z,97431.00
2023-04-16T04:07:28.778Z,97437.50
2023-04-16T04:09:55.558Z,97441.81
2023-04-16T04:12:23.776Z,97441.25
2023-04-16T04:14:50.649Z,97445.56
2023-04-16T04:17:17.438Z,97446.13
2023-04-16T04:19:54.273Z,97442.63
2023-04-16T04:22:27.647Z,97450.19
2023-04-16T04:24:54.631Z,97456.13
2023-04-16T04:27:21.437Z,97464.00
2023-04-16T04:29:49.648Z,97455.94
2023-04-16T04:32:16.440Z,97458.09
2023-04-16T04:34:43.246Z,97458.63
2023-04-16T04:37:10.053Z,97464.56
2023-04-16T04:39:36.836Z,97464.56
2023-04-16T04:42:03.846Z,97468.06
2023-04-16T04:44:30.678Z,97471.81
2023-04-16T04:46:58.856Z,97474.78
2023-04-16T04:49:25.660Z,97482.03
2023-04-16T04:51:52.567Z,97475.03
2023-04-16T04:54:19.356Z,97480.41
2023-04-16T04:56:46.145Z,97482.03
2023-04-16T04:59:13.000Z,97481.22
2023-04-16T05:01:39.864Z,97486.31
2023-04-16T05:04:08.100Z,97485.00
2023-04-16T05:06:34.988Z,97490.66
2023-04-16T05:09:01.786Z,97494.44
2023-04-16T05:11:28.601Z,97492.03
2023-04-16T05:13:55.445Z,97498.00
2023-04-16T05:16:22.273Z,97494.47
2023-04-16T05:18:49.103Z,97499.06
2023-04-16T05:21:17.292Z,97495.31
2023-04-16T05:23:44.112Z,97490.72
2023-04-16T05:26:10.902Z,97506.56
2023-04-16T05:28:37.757Z,97506.81
2023-04-16T05:31:04.772Z,97506.53
2023-04-16T05:33:31.634Z,97511.66
2023-04-16T05:35:58.449Z,97513.28
2023-04-16T05:38:26.592Z,97510.03
2023-04-16T05:40:53.519Z,97516.19
2023-04-16T05:43:20.321Z,97527.53
2023-04-16T05:45:47.208Z,97534.97
2023-04-16T05:48:14.008Z,97529.03
2023-04-16T05:50:40.863Z,97531.72
2023-04-16T05:53:08.993Z,97537.97
2023-04-16T05:55:37.153Z,97528.56
2023-04-16T05:58:04.360Z,97535.09
2023-04-16T06:00:31.418Z,97538.63
2023-04-16T06:02:58.549Z,97535.41
2023-04-16T06:05:25.905Z,97538.88
2023-04-16T06:07:52.778Z,97544.28
2023-04-16T06:10:19.645Z,97546.97
2023-04-16T06:12:47.868Z,97546.94
2023-04-16T06:15:14.710Z,97544.75
2023-04-16T06:17:41.658Z,97546.34
2023-04-16T06:20:09.006Z,97550.63
2023-04-16T06:22:35.858Z,97552.09
2023-04-16T06:25:02.722Z,97549.75
2023-04-16T06:27:29.617Z,97549.81
2023-04-16T06:29:57.930Z,97545.94
2023-04-16T06:32:24.915Z,97552.69
2023-04-16T06:34:51.780Z,97552.97
2023-04-16T06:37:18.649Z,97552.72
2023-04-16T06:39:45.465Z,97556.50
2023-04-16T06:42:12.424Z,97555.19
2023-04-16T06:44:39.238Z,97555.53
2023-04-16T06:47:07.768Z,97563.66
2023-04-16T06:49:34.716Z,97553.44
2023-04-16T06:52:02.764Z,97558.59
2023-04-16T06:54:30.762Z,97560.00
2023-04-16T06:56:57.594Z,97557.31
2023-04-16T06:59:24.605Z,97564.69
2023-04-16T07:01:51.774Z,97566.53
2023-04-16T07:04:20.096Z,97569.50
2023-04-16T07:06:46.916Z,97573.53
2023-04-16T07:09:13.730Z,97582.44
2023-04-16T07:11:40.914Z,97576.28
2023-04-16T07:14:07.767Z,97574.41
2023-04-16T07:16:34.662Z,97575.22
2023-04-16T07:19:01.570Z,97573.56
2023-04-16T07:21:29.804Z,97576.84
2023-04-16T07:23:56.629Z,97577.38
2023-04-16T07:26:23.614Z,97578.94
2023-04-16T07:28:50.412Z,97582.06
2023-04-16T07:31:17.395Z,97581.78
2023-04-16T07:33:44.462Z,97579.66
2023-04-16T07:36:11.268Z,97583.72
2023-04-16T07:38:39.489Z,97584.50
2023-04-16T07:41:06.630Z,97577.81
2023-04-16T07:43:33.442Z,97587.53
2023-04-16T07:46:00.261Z,97580.78
2023-04-16T07:48:27.150Z,97583.22
2023-04-16T07:50:54.073Z,97587.81
2023-04-16T07:53:21.046Z,97590.50
2023-04-16T07:55:49.219Z,97591.88
2023-04-16T07:58:16.039Z,97590.00
2023-04-16T08:00:42.987Z,97589.97
2023-04-16T08:03:10.091Z,97585.72
2023-04-16T08:05:37.105Z,97587.88
2023-04-16T08:08:03.988Z,97593.00
2023-04-16T08:10:30.856Z,97595.09
2023-04-16T08:12:59.929Z,97598.84
2023-04-16T08:15:26.883Z,97600.69
2023-04-16T08:17:53.748Z,97599.38
2023-04-16T08:20:20.634Z,97601.28
2023-04-16T08:22:47.866Z,97601.59
2023-04-16T08:25:14.863Z,97604.06
2023-04-16T08:27:41.688Z,97614.53
2023-04-16T08:30:10.153Z,97614.81
2023-04-16T08:32:36.980Z,97615.88
2023-04-16T08:35:04.021Z,97612.63
2023-04-16T08:37:30.853Z,97630.91
2023-04-16T08:39:57.665Z,97622.28
2023-04-16T08:42:28.984Z,97629.31
2023-04-16T08:45:03.166Z,97633.41
2023-04-16T08:47:34.333Z,97637.72
2023-04-16T08:50:02.960Z,97636.09
2023-04-16T08:52:30.603Z,97641.75
2023-04-16T08:55:01.278Z,97640.13
2023-04-16T08:57:30.717Z,97649.28
2023-04-16T08:59:58.023Z,97646.88
2023-04-16T09:02:25.997Z,97650.09
2023-04-16T09:04:55.530Z,97650.34
2023-04-16T09:07:23.913Z,97657.38
2023-04-16T09:09:53.016Z,97655.41
2023-04-16T09:12:23.250Z,97656.38
2023-04-16T09:14:50.048Z,97663.84
2023-04-16T09:17:16.972Z,97663.25
2023-04-16T09:19:43.845Z,97667.78
2023-04-16T09:22:12.138Z,97670.72
2023-04-16T09:24:38.952Z,97667.22
2023-04-16T09:27:07.726Z,97665.75
2023-04-16T09:29:34.606Z,97668.91
2023-04-16T09:32:02.316Z,97667.19
2023-04-16T09:34:29.215Z,97676.72
2023-04-16T09:36:55.999Z,97674.09
2023-04-16T09:39:24.350Z,97670.91
2023-04-16T09:41:53.050Z,97684.88
2023-04-16T09:44:19.899Z,97677.94
2023-04-16T09:46:46.692Z,97682.28
2023-04-16T09:49:14.568Z,97665.41
2023-04-16T09:51:41.624Z,97685.84
2023-04-16T09:54:08.502Z,97690.69
2023-04-16T09:56:41.291Z,97685.03
2023-04-16T09:59:08.783Z,97690.44
2023-04-16T10:01:36.385Z,97698.78
2023-04-16T10:04:06.404Z,97691.81
2023-04-16T10:06:33.213Z,97688.31
2023-04-16T10:09:00.017Z,97693.13
2023-04-16T10:11:26.836Z,97695.81
2023-04-16T10:13:54.996Z,97692.28
2023-04-16T10:16:22.389Z,97694.97
2023-04-16T10:18:49.271Z,97695.81
2023-04-16T10:21:16.433Z,97690.16
2023-04-16T10:23:43.736Z,97692.06
2023-04-16T10:26:10.768Z,97694.75
2023-04-16T10:28:37.606Z,97695.28
2023-04-16T10:31:07.525Z,97703.91
2023-04-16T10:33:35.387Z,97699.34
2023-04-16T10:36:11.620Z,97700.94
2023-04-16T10:38:39.676Z,97698.53
2023-04-16T10:41:07.147Z,97703.69
2023-04-16T10:43:38.459Z,97709.34
2023-04-16T10:46:23.106Z,97702.59
2023-04-16T10:48:53.172Z,97706.34
2023-04-16T10:51:24.540Z,97702.06
2023-04-16T10:53:51.436Z,97700.97
2023-04-16T10:56:22.909Z,97714.44
2023-04-16T10:58:49.785Z,97713.38
2023-04-16T11:01:16.639Z,97707.97
2023-04-16T11:03:44.207Z,97705.28
2023-04-16T11:06:16.239Z,97713.88
2023-04-16T11:08:54.007Z,97712.00
2023-04-16T11:11:22.065Z,97705.28
2023-04-16T11:13:48.872Z,97709.59
2023-04-16T11:16:16.329Z,97712.56
2023-04-16T11:18:51.007Z,97713.63
2023-04-16T11:21:20.084Z,97715.25
2023-04-16T11:23:47.479Z,97707.19
2023-04-16T11:26:21.260Z,97709.06
2023-04-16T11:28:48.080Z,97708.53
2023-04-16T11:31:14.917Z,97708.50
2023-04-16T11:33:42.423Z,97716.59
2023-04-16T11:36:09.329Z,97713.91
2023-04-16T11:38:38.061Z,97715.28
2023-04-16T11:41:04.866Z,97719.56
2023-04-16T11:43:31.773Z,97715.81
2023-04-16T11:45:59.310Z,97717.66
2023-04-16T11:48:26.316Z,97715.00
2023-04-16T11:50:56.445Z,97713.63
2023-04-16T11:53:23.367Z,97719.31
2023-04-16T11:55:51.635Z,97720.38
2023-04-16T11:58:18.506Z,97734.91
2023-04-16T12:00:45.558Z,97723.34
2023-04-16T12:03:12.600Z,97729.53
2023-04-16T12:05:40.444Z,97731.16
2023-04-16T12:08:07.876Z,97730.09
2023-04-16T12:10:35.773Z,97733.31
2023-04-16T12:13:13.860Z,97724.69
2023-04-16T12:15:44.014Z,97725.22
2023-04-16T12:18:10.882Z,97728.72
2023-04-16T12:20:39.648Z,97730.06
2023-04-16T12:23:06.483Z,97723.63
2023-04-16T12:25:33.354Z,97725.25
2023-04-16T12:28:00.408Z,97729.00
2023-04-16T12:30:28.617Z,97733.59
2023-04-16T12:33:10.412Z,97735.44
2023-04-16T12:35:37.369Z,97725.50
2023-04-16T12:38:04.207Z,97725.75
2023-04-16T12:40:31.284Z,97698.06
2023-04-16T12:42:58.128Z,97726.81
2023-04-16T12:45:25.440Z,97717.41
2023-04-16T12:47:53.861Z,97717.41
2023-04-16T12:50:20.664Z,97720.06
2023-04-16T12:52:47.643Z,97720.59
2023-04-16T12:55:14.507Z,97722.50
2023-04-16T12:57:41.319Z,97721.97
2023-04-16T13:00:08.606Z,97704.50
2023-04-16T13:02:35.571Z,97724.66
2023-04-16T13:05:03.979Z,97725.75
2023-04-16T13:07:30.790Z,97727.13
2023-04-16T13:09:57.676Z,97724.13
2023-04-16T13:12:24.567Z,97721.19
2023-04-16T13:14:51.362Z,97720.34
2023-04-16T13:17:18.236Z,97726.56
2023-04-16T13:19:45.019Z,97717.66
2023-04-16T13:22:13.181Z,97716.88
2023-04-16T13:24:39.991Z,97719.53
2023-04-16T13:27:06.823Z,97721.97
2023-04-16T13:29:33.645Z,97714.69
2023-04-16T13:32:00.526Z,97718.44
2023-04-16T13:34:27.360Z,97716.00
2023-04-16T13:36:54.224Z,97714.41
2023-04-16T13:39:22.507Z,97714.66
2023-04-16T13:41:49.333Z,97712.50
2023-04-16T13:44:16.152Z,97715.19
2023-04-16T13:46:43.046Z,97716.81
2023-04-16T13:49:10.129Z,97712.78
2023-04-16T13:51:36.973Z,97711.16
2023-04-16T13:54:03.985Z,97707.91
2023-04-16T13:56:32.143Z,97714.94
2023-04-16T13:58:58.950Z,97718.75
2023-04-16T14:01:25.855Z,97713.38
2023-04-16T14:03:52.807Z,97714.47
2023-04-16T14:06:19.730Z,97717.16
2023-04-16T14:08:46.601Z,97712.03
2023-04-16T14:11:13.400Z,97716.06
2023-04-16T14:13:41.795Z,97714.97
2023-04-16T14:16:08.640Z,97707.69
2023-04-16T14:18:35.474Z,97706.06
2023-04-16T14:21:02.326Z,97704.22
2023-04-16T14:23:29.192Z,97705.00
2023-04-16T14:25:56.006Z,97704.75
2023-04-16T14:28:22.818Z,97705.00
2023-04-16T14:30:51.011Z,97705.53
2023-04-16T14:33:17.817Z,97710.41
2023-04-16T14:35:44.637Z,97708.78
2023-04-16T14:38:11.563Z,97720.34
2023-04-16T14:40:38.386Z,97716.53
2023-04-16T14:43:05.209Z,97720.84
2023-04-16T14:45:32.064Z,97720.06
2023-04-16T14:48:00.252Z,97719.78
2023-04-16T14:50:27.551Z,97724.09
2023-04-16T14:52:54.506Z,97722.47
2023-04-16T14:55:21.501Z,97724.06
2023-04-16T14:57:48.320Z,97723.28
2023-04-16T15:00:15.542Z,97726.78
2023-04-16T15:02:42.516Z,97721.91
2023-04-16T15:05:10.895Z,97725.41
2023-04-16T15:07:37.757Z,97728.41
2023-04-16T15:10:04.979Z,97724.06
2023-04-16T15:12:31.796Z,97728.66
2023-04-16T15:14:58.647Z,97731.63
2023-04-16T15:17:25.835Z,97734.59
2023-04-16T15:19:52.714Z,97732.44
2023-04-16T15:22:20.908Z,97731.91
2023-04-16T15:24:47.714Z,97734.84
2023-04-16T15:27:14.532Z,97733.53
2023-04-16T15:29:41.361Z,97734.06
2023-04-16T15:32:08.188Z,97734.06
2023-04-16T15:34:34.993Z,97734.91
2023-04-16T15:37:02.018Z,97735.44
2023-04-16T15:39:30.848Z,97735.44
2023-04-16T15:42:01.261Z,97727.88
2023-04-16T15:44:29.628Z,97741.00
2023-04-16T15:46:56.476Z,97735.84
2023-04-16T15:49:23.292Z,97747.94
2023-04-16T15:51:50.614Z,97744.19
2023-04-16T15:54:17.462Z,97749.50
2023-04-16T15:56:45.707Z,97736.97
2023-04-16T15:59:12.877Z,97753.69
2023-04-16T16:01:39.820Z,97758.31
2023-04-16T16:04:06.857Z,97766.97
2023-04-16T16:06:33.999Z,97774.22
2023-04-16T16:09:00.883Z,97773.41
2023-04-16T16:11:27.704Z,97769.13
2023-04-16T16:13:55.884Z,97771.56
2023-04-16T16:16:22.718Z,97768.56
2023-04-16T16:18:49.592Z,97774.25
2023-04-16T16:21:16.435Z,97778.28
2023-04-16T16:23:43.241Z,97771.84
2023-04-16T16:26:10.044Z,97779.13
2023-04-16T16:28:36.870Z,97781.81
2023-04-16T16:31:05.392Z,97771.59
2023-04-16T16:33:32.539Z,97772.41
2023-04-16T16:35:59.370Z,97771.31
2023-04-16T16:38:26.212Z,97780.22
2023-04-16T16:40:52.991Z,97776.44
2023-04-16T16:43:19.903Z,97777.25
2023-04-16T16:45:46.768Z,97774.56
2023-04-16T16:48:14.922Z,97775.34
2023-04-16T16:50:41.777Z,97777.25
2023-04-16T16:53:08.620Z,97778.06
2023-04-16T16:55:35.431Z,97779.94
2023-04-16T16:58:02.814Z,97776.19
2023-04-16T17:00:29.673Z,97779.66
2023-04-16T17:02:56.625Z,97780.19
2023-04-16T17:05:24.974Z,97786.63
2023-04-16T17:07:51.827Z,97788.78
2023-04-16T17:10:18.673Z,97785.81
2023-04-16T17:12:45.603Z,97782.03
2023-04-16T17:15:12.399Z,97785.78
2023-04-16T17:17:39.217Z,97788.22
2023-04-16T17:20:06.598Z,97793.84
2023-04-16T17:22:34.807Z,97787.69
2023-04-16T17:25:01.648Z,97794.41
2023-04-16T17:27:28.506Z,97798.72
2023-04-16T17:29:55.296Z,97805.69
2023-04-16T17:32:22.174Z,97806.50
2023-04-16T17:34:49.246Z,97806.22
2023-04-16T17:37:16.102Z,97808.94
2023-04-16T17:39:44.254Z,97808.13
2023-04-16T17:42:11.100Z,97806.78
2023-04-16T17:44:37.912Z,97814.31
2023-04-16T17:47:05.144Z,97817.63
2023-04-16T17:49:31.970Z,97813.59
2023-04-16T17:51:58.773Z,97827.84
2023-04-16T17:54:25.568Z,97827.56
2023-04-16T17:56:53.945Z,97825.16
2023-04-16T17:59:21.593Z,97827.56
2023-04-16T18:01:48.491Z,97830.78
2023-04-16T18:04:15.730Z,97839.94
2023-04-16T18:06:42.953Z,97842.59
2023-04-16T18:09:09.776Z,97846.63
2023-04-16T18:11:36.617Z,97852.03
2023-04-16T18:14:04.788Z,97850.97
2023-04-16T18:16:31.619Z,97849.59
2023-04-16T18:18:58.464Z,97854.44
2023-04-16T18:21:25.269Z,97861.19
2023-04-16T18:23:52.048Z,97864.97
2023-04-16T18:26:21.125Z,97865.25
2023-04-16T18:28:49.645Z,97867.97
2023-04-16T18:31:20.897Z,97869.56
2023-04-16T18:33:56.840Z,97872.25
2023-04-16T18:36:25.025Z,97872.00
2023-04-16T18:39:01.127Z,97877.66
2023-04-16T18:41:29.223Z,97879.00
2023-04-16T18:43:56.232Z,97877.94
2023-04-16T18:46:24.624Z,97861.78
2023-04-16T18:48:51.450Z,97876.84
2023-04-16T18:51:18.292Z,97877.06
2023-04-16T18:53:45.104Z,97852.31
2023-04-16T18:56:11.932Z,97881.94
2023-04-16T18:58:38.974Z,97882.78
2023-04-16T19:01:05.883Z,97893.00
2023-04-16T19:03:34.180Z,97895.69
2023-04-16T19:06:01.283Z,97891.09
2023-04-16T19:08:28.154Z,97896.75
2023-04-16T19:10:54.985Z,97891.09
2023-04-16T19:13:21.928Z,97895.94
2023-04-16T19:15:48.788Z,97895.69
2023-04-16T19:18:15.668Z,97895.44
2023-04-16T19:20:43.854Z,97891.09
2023-04-16T19:23:10.777Z,97893.53
2023-04-16T19:25:37.647Z,97890.03
2023-04-16T19:28:04.656Z,97895.16
2023-04-16T19:30:31.615Z,97899.72
2023-04-16T19:32:58.514Z,97892.72
2023-04-16T19:35:25.735Z,97900.00
2023-04-16T19:37:53.900Z,97894.09
2023-04-16T19:40:20.690Z,97896.50
2023-04-16T19:42:47.562Z,97900.81
2023-04-16T19:45:14.434Z,97898.13
2023-04-16T19:47:41.268Z,97897.31
2023-04-16T19:50:08.504Z,97900.53
2023-04-16T19:52:35.325Z,97905.41
2023-04-16T19:55:03.642Z,97904.56
2023-04-16T19:57:30.511Z,97904.34
2023-04-16T19:59:57.303Z,97909.16
2023-04-16T20:02:24.277Z,97905.66
2023-04-16T20:04:51.593Z,97916.44
2023-04-16T20:07:18.470Z,97914.28
2023-04-16T20:09:45.314Z,97918.06
2023-04-16T20:12:13.512Z,97913.75
2023-04-16T20:14:40.285Z,97912.97
2023-04-16T20:17:07.178Z,97914.00
2023-04-16T20:19:34.211Z,97920.75
2023-04-16T20:22:00.997Z,97927.44
2023-04-16T20:24:27.791Z,97922.59
2023-04-16T20:26:54.724Z,97924.19
2023-04-16T20:29:22.873Z,97925.28
2023-04-16T20:31:49.671Z,97924.47
2023-04-16T20:34:16.496Z,97919.09
2023-04-16T20:36:43.297Z,97918.28
2023-04-16T20:39:10.205Z,97915.31
2023-04-16T20:41:37.357Z,97921.50
2023-04-16T20:44:04.354Z,97919.09
2023-04-16T20:46:32.594Z,97915.31
2023-04-16T20:48:59.477Z,97919.88
2023-04-16T20:51:26.351Z,97912.91
2023-04-16T20:53:53.285Z,97918.78
2023-04-16T20:56:20.142Z,97922.56
2023-04-16T20:58:46.937Z,97919.63
2023-04-16T21:01:13.755Z,97920.44
2023-04-16T21:03:42.199Z,97927.41
2023-04-16T21:06:09.211Z,97922.03
2023-04-16T21:08:36.029Z,97920.13
2023-04-16T21:11:03.008Z,97925.78
2023-04-16T21:13:29.844Z,97918.78
2023-04-16T21:15:56.704Z,97918.25
2023-04-16T21:18:23.593Z,97914.75
2023-04-16T21:20:51.743Z,97921.50
2023-04-16T21:23:18.553Z,97916.38
2023-04-16T21:25:45.445Z,97919.59
2023-04-16T21:28:12.247Z,97920.94
2023-04-16T21:30:39.037Z,97919.88
2023-04-16T21:33:06.321Z,97919.34
2023-04-16T21:35:33.392Z,97922.56
2023-04-16T21:38:01.569Z,97912.34
2023-04-16T21:40:28.393Z,97927.69
2023-04-16T21:42:55.216Z,97923.63
2023-04-16T21:45:22.023Z,97919.88
2023-04-16T21:47:48.950Z,97917.44
2023-04-16T21:50:15.781Z,97916.09
2023-04-16T21:52:42.847Z,97915.84
2023-04-16T21:55:10.996Z,97926.06
2023-04-16T21:57:39.601Z,97921.19
2023-04-16T22:00:07.525Z,97919.84
2023-04-16T22:02:34.482Z,97921.44
2023-04-16T22:05:01.509Z,97924.69
2023-04-16T22:07:28.326Z,97919.84
2023-04-16T22:09:55.136Z,97919.31
2023-04-16T22:12:23.335Z,97925.78
2023-04-16T22:17:22.644Z,97922.81
2023-04-16T22:19:49.727Z,97919.31
2023-04-16T22:22:16.566Z,97913.97
2023-04-16T22:24:43.381Z,97918.25
2023-04-16T22:27:10.171Z,97921.75
2023-04-16T22:29:38.352Z,97915.56
2023-04-16T22:32:05.491Z,97912.34
2023-04-16T22:34:32.308Z,97922.00
2023-04-16T22:36:59.131Z,97919.59
2023-04-16T22:39:25.928Z,97915.81
2023-04-16T22:41:52.714Z,97915.28
2023-04-16T22:44:19.556Z,97912.31
2023-04-16T22:46:47.748Z,97911.25
2023-04-16T22:49:14.554Z,97918.78
2023-04-16T22:51:41.425Z,97913.66
2023-04-16T22:54:08.317Z,97916.63
2023-04-16T22:56:35.198Z,97908.81
2023-04-16T22:59:02.037Z,97914.44
2023-04-16T23:01:28.985Z,97913.09
2023-04-16T23:03:57.212Z,97912.84
2023-04-16T23:06:24.252Z,97909.63
2023-04-16T23:08:51.051Z,97910.44
2023-04-16T23:11:17.864Z,97911.78
2023-04-16T23:13:44.857Z,97901.56
2023-04-16T23:16:11.769Z,97911.22
2023-04-16T23:18:38.596Z,97902.34
2023-04-16T23:21:06.878Z,97902.34
2023-04-16T23:23:33.674Z,97902.63
2023-04-16T23:26:00.483Z,97907.47
2023-04-16T23:28:27.366Z,97905.03
2023-04-16T23:30:54.333Z,97901.53
2023-04-16T23:33:21.151Z,97907.72
2023-04-16T23:35:47.969Z,97905.84
2023-04-16T23:38:16.124Z,97903.16
2023-04-16T23:40:42.912Z,97902.59
2023-04-16T23:43:09.726Z,97909.88
2023-04-16T23:45:36.631Z,97900.19
2023-04-16T23:48:03.635Z,97894.78
2023-04-16T23:50:30.502Z,97893.97
2023-04-16T23:52:57.301Z,97901.53
2023-04-16T23:55:25.500Z,97896.41
2023-04-16T23:57:52.478Z,97894.00
